createdAt,value
2018-07-05T04:45:39.733Z,325.00
2018-07-05T04:46:45.977Z,324.00
2018-07-05T04:47:40.364Z,324.00
2018-07-05T04:48:42.179Z,324.00
2018-07-05T05:17:46.878Z,326.00
2018-07-05T08:01:43.092Z,345.00
2018-07-05T08:48:16.726Z,348.00
2018-07-05T08:49:17.489Z,348.00
2018-07-05T08:50:18.265Z,351.00
2018-07-05T08:51:19.047Z,354.00
2018-07-05T08:52:19.828Z,360.00
2018-07-05T08:53:20.618Z,363.00
2018-07-05T08:54:21.388Z,364.00
2018-07-05T08:55:22.158Z,369.00
2018-07-05T08:56:22.935Z,370.00
2018-07-05T08:57:23.710Z,372.00
2018-07-05T08:58:24.573Z,375.00
2018-07-05T08:59:24.296Z,376.00
2018-07-05T09:00:26.069Z,377.00
2018-07-05T09:01:26.847Z,380.00
2018-07-05T09:02:27.613Z,381.00
2018-07-05T09:03:28.416Z,382.00
2018-07-05T09:04:29.191Z,381.00
2018-07-05T09:05:29.961Z,380.00
2018-07-05T09:06:30.741Z,378.00
2018-07-05T09:07:31.519Z,380.00
2018-07-05T09:08:32.318Z,381.00
2018-07-05T09:09:33.090Z,379.00
2018-07-05T09:10:33.859Z,379.00
2018-07-05T09:11:34.637Z,381.00
2018-07-05T09:12:35.576Z,379.00
2018-07-05T09:13:35.299Z,378.00
2018-07-05T09:14:37.288Z,376.00
2018-07-05T09:15:37.069Z,376.00
2018-07-05T09:16:38.828Z,378.00
2018-07-05T09:17:39.727Z,374.00
2018-07-05T09:18:39.805Z,370.00
2018-07-05T09:19:39.512Z,366.00
2018-07-05T09:20:41.286Z,374.00
2018-07-05T09:21:42.059Z,380.00
2018-07-05T09:22:42.851Z,374.00
2018-07-05T09:23:43.671Z,360.00
2018-07-05T09:24:43.414Z,357.00
2018-07-05T09:25:45.177Z,356.00
2018-07-05T09:26:46.019Z,355.00
2018-07-05T09:27:45.727Z,362.00
2018-07-05T09:28:47.530Z,362.00
2018-07-05T09:29:48.308Z,358.00
2018-07-05T09:30:49.090Z,358.00
2018-07-05T09:31:49.868Z,361.00
2018-07-05T09:32:50.635Z,361.00
2018-07-05T09:33:51.435Z,362.00
2018-07-05T09:34:52.214Z,365.00
2018-07-05T09:35:52.988Z,368.00
2018-07-05T09:36:53.762Z,368.00
2018-07-05T09:37:54.535Z,361.00
2018-07-05T09:38:55.351Z,355.00
2018-07-05T09:39:56.117Z,353.00
2018-07-05T09:40:56.881Z,351.00
2018-07-05T09:41:57.656Z,349.00
2018-07-05T09:42:58.429Z,350.00
2018-07-05T09:43:59.232Z,350.00
2018-07-05T09:45:00.004Z,350.00
2018-07-05T09:46:00.781Z,350.00
2018-07-05T09:47:01.607Z,351.00
2018-07-05T09:48:01.331Z,350.00
2018-07-05T09:49:03.124Z,353.00
2018-07-05T09:50:03.903Z,357.00
2018-07-05T09:51:04.675Z,361.00
2018-07-05T09:52:05.692Z,364.00
2018-07-05T09:53:05.433Z,367.00
2018-07-05T09:54:07.321Z,369.00
2018-07-05T09:55:07.017Z,369.00
2018-07-05T09:56:08.890Z,369.00
2018-07-05T09:57:12.171Z,365.00
2018-07-05T09:58:09.877Z,375.00
2018-07-05T09:59:10.938Z,372.00
2018-07-05T10:00:10.798Z,378.00
2018-07-05T10:01:11.715Z,365.00
2018-07-05T10:02:12.617Z,368.00
2018-07-05T10:03:13.538Z,357.00
2018-07-05T10:04:14.570Z,366.00
2018-07-05T10:05:14.317Z,355.00
2018-07-05T10:06:15.125Z,356.00
2018-07-05T10:07:15.844Z,353.00
2018-07-05T10:08:17.852Z,357.00
2018-07-05T10:09:17.578Z,352.00
2018-07-05T10:10:19.340Z,363.00
2018-07-05T10:11:20.223Z,366.00
2018-07-05T10:12:21.066Z,370.00
2018-07-05T10:13:20.907Z,363.00
2018-07-05T10:14:21.745Z,358.00
2018-07-05T10:15:23.519Z,360.00
2018-07-05T10:16:24.293Z,369.00
2018-07-05T10:17:25.080Z,365.00
2018-07-05T10:18:24.928Z,370.00
2018-07-05T10:19:26.792Z,364.00
2018-07-05T10:20:26.494Z,369.00
2018-07-05T10:21:28.333Z,373.00
2018-07-05T10:22:28.151Z,370.00
2018-07-05T10:23:28.975Z,362.00
2018-07-05T10:24:30.796Z,361.00
2018-07-05T10:25:30.664Z,356.00
2018-07-05T10:26:32.523Z,352.00
2018-07-05T10:27:33.428Z,350.00
2018-07-05T10:28:33.303Z,348.00
2018-07-05T10:29:34.090Z,348.00
2018-07-05T10:30:34.874Z,348.00
2018-07-05T10:31:36.729Z,348.00
2018-07-05T10:32:37.497Z,350.00
2018-07-05T10:33:38.353Z,352.00
2018-07-05T10:34:40.298Z,351.00
2018-07-05T10:35:40.165Z,351.00
2018-07-05T10:36:39.852Z,351.00
2018-07-05T10:37:40.638Z,353.00
2018-07-05T10:38:42.413Z,348.00
2018-07-05T10:39:43.228Z,353.00
2018-07-05T10:40:42.996Z,357.00
2018-07-05T10:41:44.762Z,370.00
2018-07-05T10:42:45.556Z,373.00
2018-07-05T10:43:46.313Z,369.00
2018-07-05T10:44:47.119Z,370.00
2018-07-05T10:45:47.905Z,355.00
2018-07-05T10:46:48.672Z,354.00
2018-07-05T10:47:48.443Z,349.00
2018-07-05T10:48:50.220Z,346.00
2018-07-05T10:49:51.018Z,346.00
2018-07-05T10:50:51.800Z,350.00
2018-07-05T10:51:52.565Z,352.00
2018-07-05T10:52:54.340Z,357.00
2018-07-05T10:53:54.119Z,356.00
2018-07-05T10:54:54.912Z,363.00
2018-07-05T10:55:55.690Z,362.00
2018-07-05T10:56:56.455Z,358.00
2018-07-05T10:57:57.232Z,358.00
2018-07-05T10:58:57.998Z,355.00
2018-07-05T10:59:58.799Z,351.00
2018-07-05T11:00:59.622Z,349.00
2018-07-05T11:01:59.341Z,341.00
2018-07-05T11:03:01.114Z,344.00
2018-07-05T11:04:01.904Z,351.00
2018-07-05T11:05:02.687Z,349.00
2018-07-05T11:06:03.458Z,346.00
2018-07-05T11:07:04.334Z,345.00
2018-07-05T11:08:04.427Z,343.00
2018-07-05T11:09:05.645Z,345.00
2018-07-05T11:10:04.883Z,346.00
2018-07-05T11:11:05.187Z,349.00
2018-07-05T11:14:01.630Z,355.00
2018-07-05T11:15:02.393Z,355.00
2018-07-05T11:16:03.194Z,361.00
2018-07-05T11:17:03.968Z,349.00
2018-07-05T11:18:04.739Z,343.00
2018-07-05T11:19:05.511Z,342.00
2018-07-05T11:20:06.308Z,341.00
2018-07-05T11:21:07.101Z,360.00
2018-07-05T11:22:07.870Z,369.00
2018-07-05T11:23:08.642Z,341.00
2018-07-05T11:24:09.418Z,341.00
2018-07-05T11:25:10.200Z,357.00
2018-07-05T11:26:11.027Z,357.00
2018-07-05T11:27:11.768Z,358.00
2018-07-05T11:28:12.542Z,360.00
2018-07-05T11:29:13.312Z,362.00
2018-07-05T11:30:14.125Z,362.00
2018-07-05T11:31:13.889Z,362.00
2018-07-05T11:32:17.835Z,339.00
2018-07-05T11:33:15.434Z,338.00
2018-07-05T11:34:17.216Z,360.00
2018-07-05T11:35:17.986Z,361.00
2018-07-05T11:36:18.826Z,362.00
2018-07-05T11:37:18.553Z,364.00
2018-07-05T11:38:20.323Z,365.00
2018-07-05T11:39:21.095Z,362.00
2018-07-05T11:40:21.876Z,366.00
2018-07-05T11:41:22.674Z,345.00
2018-07-05T11:42:23.458Z,350.00
2018-07-05T11:43:23.219Z,361.00
2018-07-05T11:44:25.035Z,363.00
2018-07-05T11:45:25.802Z,360.00
2018-07-05T11:46:26.600Z,357.00
2018-07-05T11:47:27.428Z,355.00
2018-07-05T11:48:27.186Z,360.00
2018-07-05T11:49:28.934Z,361.00
2018-07-05T11:50:29.708Z,358.00
2018-07-05T11:51:30.510Z,358.00
2018-07-05T11:52:31.277Z,360.00
2018-07-05T11:53:32.048Z,361.00
2018-07-05T11:54:32.820Z,354.00
2018-07-05T11:55:33.600Z,341.00
2018-07-05T11:56:34.401Z,356.00
2018-07-05T11:57:35.171Z,341.00
2018-07-05T11:58:35.964Z,348.00
2018-07-05T11:59:41.937Z,355.00
2018-07-05T12:00:36.281Z,358.00
2018-07-05T12:01:38.054Z,355.00
2018-07-05T12:02:38.828Z,362.00
2018-07-05T12:03:39.605Z,357.00
2018-07-05T12:04:40.416Z,358.00
2018-07-05T12:05:40.164Z,353.00
2018-07-05T12:06:41.959Z,341.00
2018-07-05T12:07:42.725Z,366.00
2018-07-05T12:08:43.568Z,363.00
2018-07-05T12:09:43.271Z,344.00
2018-07-05T12:10:45.056Z,363.00
2018-07-05T12:11:45.850Z,365.00
2018-07-05T12:12:46.623Z,364.00
2018-07-05T12:13:47.409Z,358.00
2018-07-05T12:14:48.188Z,357.00
2018-07-05T12:15:48.983Z,354.00
2018-07-05T12:16:49.781Z,351.00
2018-07-05T12:17:50.572Z,349.00
2018-07-05T12:18:51.321Z,343.00
2018-07-05T12:19:52.133Z,350.00
2018-07-05T12:20:51.877Z,344.00
2018-07-05T12:21:53.672Z,350.00
2018-07-05T12:22:54.442Z,348.00
2018-07-05T12:23:55.229Z,348.00
2018-07-05T12:24:55.996Z,348.00
2018-07-05T12:25:56.792Z,345.00
2018-07-05T12:26:57.618Z,345.00
2018-07-05T12:27:58.382Z,348.00
2018-07-05T12:28:59.211Z,346.00
2018-07-05T12:29:58.929Z,351.00
2018-07-05T12:31:00.697Z,355.00
2018-07-05T12:32:01.504Z,354.00
2018-07-05T12:33:02.280Z,350.00
2018-07-05T12:34:03.053Z,345.00
2018-07-05T12:35:03.822Z,340.00
2018-07-05T12:36:04.598Z,342.00
2018-07-05T12:37:05.387Z,350.00
2018-07-05T12:38:06.214Z,341.00
2018-07-05T12:39:05.942Z,340.00
2018-07-05T12:40:07.715Z,339.00
2018-07-05T12:41:08.491Z,338.00
2018-07-05T12:42:09.291Z,340.00
2018-07-05T12:43:10.064Z,345.00
2018-07-05T12:44:10.838Z,336.00
2018-07-05T12:45:11.606Z,336.00
2018-07-05T12:46:12.391Z,339.00
2018-07-05T12:47:13.203Z,344.00
2018-07-05T12:48:13.968Z,338.00
2018-07-05T12:49:14.747Z,337.00
2018-07-05T12:50:18.286Z,337.00
2018-07-05T12:51:16.050Z,337.00
2018-07-05T12:52:16.841Z,338.00
2018-07-05T12:53:17.618Z,341.00
2018-07-05T12:54:18.391Z,340.00
2018-07-05T12:55:19.166Z,337.00
2018-07-05T12:56:19.936Z,336.00
2018-07-05T12:57:20.748Z,332.00
2018-07-05T12:58:21.518Z,330.00
2018-07-05T12:59:22.290Z,331.00
2018-07-05T13:00:23.062Z,330.00
2018-07-05T13:01:23.840Z,330.00
2018-07-05T13:02:24.644Z,329.00
2018-07-05T13:03:25.422Z,328.00
2018-07-05T13:04:26.212Z,327.00
2018-07-05T13:05:25.967Z,327.00
2018-07-05T13:06:27.737Z,327.00
2018-07-05T13:07:28.535Z,327.00
2018-07-05T13:08:29.313Z,328.00
2018-07-05T13:09:30.095Z,330.00
2018-07-05T13:10:30.872Z,330.00
2018-07-05T13:11:32.028Z,334.00
2018-07-05T13:12:48.071Z,330.00
2018-07-05T13:13:47.758Z,331.00
2018-07-05T13:14:49.532Z,331.00
2018-07-05T13:15:50.310Z,332.00
2018-07-05T13:16:51.082Z,340.00
2018-07-05T13:17:51.877Z,340.00
2018-07-05T13:18:52.648Z,341.00
2018-07-05T13:19:53.425Z,343.00
2018-07-05T13:20:54.197Z,340.00
2018-07-05T13:21:54.968Z,336.00
2018-07-05T13:22:57.286Z,332.00
2018-07-05T13:23:56.070Z,333.00
2018-07-05T13:24:56.825Z,331.00
2018-07-05T13:25:57.596Z,333.00
2018-07-05T13:26:58.374Z,334.00
2018-07-05T13:27:59.177Z,337.00
2018-07-05T13:28:59.944Z,338.00
2018-07-05T13:30:00.717Z,338.00
2018-07-05T13:31:01.493Z,338.00
2018-07-05T13:32:02.263Z,337.00
2018-07-05T13:33:03.661Z,334.00
2018-07-05T13:34:02.409Z,332.00
2018-07-05T13:35:04.177Z,332.00
2018-07-05T13:36:04.950Z,332.00
2018-07-05T13:37:05.725Z,331.00
2018-07-05T13:38:06.515Z,330.00
2018-07-05T13:39:07.285Z,330.00
2018-07-05T13:40:08.063Z,328.00
2018-07-05T13:41:08.840Z,328.00
2018-07-05T13:42:09.617Z,328.00
2018-07-05T13:43:10.950Z,326.00
2018-07-05T13:44:10.722Z,326.00
2018-07-05T13:45:11.499Z,326.00
2018-07-05T13:46:12.294Z,328.00
2018-07-05T13:47:13.115Z,329.00
2018-07-05T13:48:12.850Z,332.00
2018-07-05T13:49:14.631Z,334.00
2018-07-05T13:50:15.409Z,336.00
2018-07-05T13:51:16.186Z,336.00
2018-07-05T13:52:15.946Z,337.00
2018-07-05T13:53:17.757Z,337.00
2018-07-05T13:54:18.526Z,338.00
2018-07-05T13:55:19.297Z,338.00
2018-07-05T13:56:20.073Z,338.00
2018-07-05T13:57:20.871Z,337.00
2018-07-05T13:58:21.654Z,336.00
2018-07-05T13:59:22.433Z,337.00
2018-07-05T14:00:23.207Z,337.00
2018-07-05T14:01:23.972Z,337.00
2018-07-05T14:02:25.743Z,337.00
2018-07-05T14:03:25.547Z,336.00
2018-07-05T14:04:26.314Z,336.00
2018-07-05T14:05:27.097Z,336.00
2018-07-05T14:06:27.856Z,334.00
2018-07-05T14:07:28.644Z,333.00
2018-07-05T14:08:29.434Z,333.00
2018-07-05T14:09:30.203Z,332.00
2018-07-05T14:10:30.976Z,331.00
2018-07-05T14:11:31.747Z,330.00
2018-07-05T14:12:32.527Z,329.00
2018-07-05T14:13:33.330Z,329.00
2018-07-05T14:14:34.095Z,329.00
2018-07-05T14:15:33.879Z,328.00
2018-07-05T14:16:35.653Z,328.00
2018-07-05T14:17:36.433Z,327.00
2018-07-05T14:18:37.231Z,327.00
2018-07-05T14:19:38.007Z,327.00
2018-07-05T14:20:38.779Z,327.00
2018-07-05T14:21:39.551Z,327.00
2018-07-05T14:22:40.321Z,327.00
2018-07-05T14:23:41.121Z,327.00
2018-07-05T14:24:42.001Z,326.00
2018-07-05T14:25:41.672Z,326.00
2018-07-05T14:26:43.450Z,326.00
2018-07-05T14:27:44.219Z,326.00
2018-07-05T14:28:45.050Z,326.00
2018-07-05T14:29:45.816Z,326.00
2018-07-05T14:30:46.595Z,326.00
2018-07-05T14:31:47.363Z,326.00
2018-07-05T14:32:48.158Z,325.00
2018-07-05T14:33:48.943Z,325.00
2018-07-05T14:34:49.725Z,326.00
2018-07-05T14:35:51.500Z,325.00
2018-07-05T14:36:51.269Z,326.00
2018-07-05T14:37:52.042Z,326.00
2018-07-05T14:38:52.851Z,326.00
2018-07-05T14:39:53.731Z,326.00
2018-07-05T14:40:54.484Z,326.00
2018-07-05T14:41:55.248Z,326.00
2018-07-05T14:42:56.027Z,326.00
2018-07-05T14:43:56.829Z,326.00
2018-07-05T14:44:57.681Z,326.00
2018-07-05T14:45:57.370Z,325.00
2018-07-05T14:46:59.145Z,326.00
2018-07-05T14:47:59.920Z,325.00
2018-07-05T14:49:00.722Z,326.00
2018-07-05T14:50:01.500Z,325.00
2018-07-05T14:51:02.268Z,325.00
2018-07-05T14:52:03.045Z,325.00
2018-07-05T14:53:03.823Z,325.00
2018-07-05T14:54:04.617Z,325.00
2018-07-05T14:55:05.401Z,325.00
2018-07-05T14:56:06.164Z,325.00
2018-07-05T14:57:06.939Z,324.00
2018-07-05T14:58:07.708Z,325.00
2018-07-05T14:59:08.524Z,325.00
2018-07-05T15:00:09.292Z,325.00
2018-07-05T15:01:10.075Z,325.00
2018-07-05T15:02:10.831Z,325.00
2018-07-05T15:03:11.614Z,326.00
2018-07-05T15:04:12.434Z,325.00
2018-07-05T15:05:12.187Z,325.00
2018-07-05T15:06:14.058Z,325.00
2018-07-05T15:07:14.180Z,325.00
2018-07-05T15:08:15.380Z,326.00
2018-07-05T15:09:16.050Z,325.00
2018-07-05T15:10:15.272Z,325.00
2018-07-05T15:12:09.807Z,326.00
2018-07-05T15:13:10.583Z,326.00
2018-07-05T15:14:11.354Z,326.00
2018-07-05T15:15:12.149Z,326.00
2018-07-05T15:16:12.923Z,325.00
2018-07-05T15:17:13.694Z,326.00
2018-07-05T15:18:14.516Z,325.00
2018-07-05T15:19:14.253Z,326.00
2018-07-05T15:20:16.056Z,325.00
2018-07-05T15:21:16.824Z,325.00
2018-07-05T15:22:17.605Z,326.00
2018-07-05T15:23:18.371Z,325.00
2018-07-05T15:24:19.204Z,326.00
2018-07-05T15:25:18.941Z,326.00
2018-07-05T15:26:20.710Z,326.00
2018-07-05T15:27:21.507Z,327.00
2018-07-05T15:28:22.480Z,326.00
2018-07-05T15:29:22.184Z,326.00
2018-07-05T15:30:23.984Z,327.00
2018-07-05T15:31:24.749Z,327.00
2018-07-05T15:32:25.529Z,327.00
2018-07-05T15:33:26.299Z,327.00
2018-07-05T15:34:27.073Z,327.00
2018-07-05T15:35:27.882Z,327.00
2018-07-05T15:36:28.649Z,327.00
2018-07-05T15:37:29.434Z,324.00
2018-07-05T15:38:30.220Z,326.00
2018-07-05T15:39:31.980Z,326.00
2018-07-05T15:40:31.801Z,326.00
2018-07-05T15:41:32.551Z,326.00
2018-07-05T15:42:33.338Z,326.00
2018-07-05T15:43:34.129Z,326.00
2018-07-05T19:19:49.117Z,320.00
2018-07-05T19:20:46.268Z,320.00
2018-07-05T19:21:48.107Z,320.00
2018-07-05T19:24:58.197Z,321.00
2018-07-05T19:26:55.241Z,321.00
2018-07-05T19:26:59.173Z,321.00
2018-07-05T19:27:59.837Z,321.00
2018-07-05T19:29:13.960Z,321.00
2018-07-05T19:29:57.375Z,321.00
2018-07-05T19:31:07.328Z,320.00
2018-07-05T19:31:58.416Z,320.00
2018-07-05T19:33:02.673Z,320.00
2018-07-05T19:34:00.031Z,320.00
2018-07-05T19:35:38.396Z,320.00
2018-07-05T19:36:50.457Z,320.00
2018-07-05T19:37:49.266Z,321.00
2018-07-05T19:39:47.858Z,320.00
2018-07-05T19:40:50.640Z,320.00
2018-07-05T19:41:06.512Z,320.00
2018-07-05T19:41:59.619Z,320.00
2018-07-05T19:45:04.924Z,320.00
2018-07-05T19:45:55.068Z,320.00
2018-07-05T19:47:00.177Z,320.00
2018-07-05T19:48:07.247Z,320.00
2018-07-05T19:49:02.308Z,320.00
2018-07-05T19:50:10.597Z,320.00
2018-07-05T19:51:02.297Z,320.00
2018-07-05T19:52:04.932Z,320.00
2018-07-05T19:53:59.315Z,321.00
2018-07-05T19:55:00.101Z,320.00
2018-07-05T19:56:18.711Z,320.00
2018-07-05T19:56:59.254Z,320.00
2018-07-05T19:58:07.276Z,320.00
2018-07-05T19:59:02.915Z,320.00
2018-07-05T20:00:01.604Z,320.00
2018-07-05T20:01:04.615Z,320.00
2018-07-05T20:03:25.097Z,320.00
2018-07-05T20:04:12.157Z,320.00
2018-07-05T20:05:08.222Z,320.00
2018-07-05T20:06:11.855Z,320.00
2018-07-05T20:07:09.974Z,320.00
2018-07-05T20:08:03.904Z,320.00
2018-07-05T20:08:17.129Z,320.00
2018-07-05T20:11:47.733Z,321.00
2018-07-05T20:11:48.753Z,320.00
2018-07-05T20:11:50.801Z,320.00
2018-07-05T20:12:45.863Z,320.00
2018-07-05T20:14:44.650Z,320.00
2018-07-05T20:15:07.938Z,320.00
2018-07-05T20:15:59.559Z,320.00
2018-07-05T20:16:54.050Z,320.00
2018-07-05T20:17:14.310Z,319.00
2018-07-05T20:18:00.210Z,320.00
2018-07-05T20:18:35.471Z,320.00
2018-07-05T20:19:39.013Z,320.00
2018-07-05T20:20:26.851Z,320.00
2018-07-05T20:21:17.217Z,320.00
2018-07-05T20:22:26.589Z,320.00
2018-07-05T20:23:19.780Z,319.00
2018-07-05T20:24:44.247Z,319.00
2018-07-05T20:25:20.619Z,319.00
2018-07-05T20:26:21.388Z,319.00
2018-07-05T20:27:30.849Z,319.00
2018-07-05T20:28:23.245Z,319.00
2018-07-05T20:29:30.254Z,320.00
2018-07-05T20:30:48.182Z,319.00
2018-07-05T20:31:24.351Z,319.00
2018-07-05T20:32:28.545Z,320.00
2018-07-05T20:33:28.715Z,320.00
2018-07-05T20:34:26.550Z,319.00
2018-07-05T20:35:27.351Z,319.00
2018-07-05T20:36:28.154Z,319.00
2018-07-05T20:38:09.862Z,319.00
2018-07-05T20:41:59.273Z,319.00
2018-07-05T20:42:37.709Z,319.00
2018-07-05T20:43:33.480Z,320.00
2018-07-05T20:43:50.432Z,320.00
2018-07-05T20:44:34.235Z,319.00
2018-07-05T20:45:38.097Z,319.00
2018-07-05T20:46:43.148Z,319.00
2018-07-05T20:47:33.261Z,319.00
2018-07-05T20:47:45.867Z,320.00
2018-07-05T20:48:46.883Z,319.00
2018-07-05T20:49:40.848Z,319.00
2018-07-05T20:50:55.869Z,319.00
2018-07-05T20:52:00.643Z,319.00
2018-07-05T20:52:42.454Z,319.00
2018-07-05T20:53:48.056Z,319.00
2018-07-05T20:54:00.216Z,319.00
2018-07-05T20:54:41.803Z,319.00
2018-07-05T20:55:44.971Z,319.00
2018-07-05T20:56:50.610Z,319.00
2018-07-05T20:57:44.224Z,319.00
2018-07-05T20:58:52.637Z,319.00
2018-07-05T20:59:48.614Z,319.00
2018-07-05T21:00:49.197Z,319.00
2018-07-05T21:01:47.005Z,319.00
2018-07-05T21:03:02.052Z,320.00
2018-07-05T21:04:56.176Z,319.00
2018-07-05T21:05:49.748Z,320.00
2018-07-05T21:06:09.976Z,319.00
2018-07-05T21:06:58.760Z,319.00
2018-07-05T21:07:59.546Z,319.00
2018-07-05T21:08:52.204Z,319.00
2018-07-05T21:09:55.413Z,319.00
2018-07-05T21:10:53.842Z,319.00
2018-07-05T21:11:54.593Z,319.00
2018-07-05T21:12:56.392Z,319.00
2018-07-05T21:13:59.640Z,319.00
2018-07-05T21:15:04.289Z,319.00
2018-07-05T21:16:02.133Z,320.00
2018-07-05T21:17:07.605Z,319.00
2018-07-05T21:18:01.759Z,319.00
2018-07-05T21:19:02.655Z,320.00
2018-07-05T21:20:01.371Z,319.00
2018-07-05T21:21:04.309Z,319.00
2018-07-05T21:22:03.013Z,319.00
2018-07-05T21:23:03.847Z,319.00
2018-07-05T21:24:04.643Z,319.00
2018-07-05T21:25:05.394Z,319.00
2018-07-05T21:26:07.264Z,319.00
2018-07-05T21:27:09.529Z,319.00
2018-07-05T21:28:07.884Z,319.00
2018-07-05T21:29:11.135Z,319.00
2018-07-05T21:30:16.696Z,319.00
2018-07-05T21:31:10.472Z,319.00
2018-07-05T21:32:11.255Z,319.00
2018-07-05T21:33:12.151Z,320.00
2018-07-05T21:34:12.991Z,319.00
2018-07-05T21:35:13.809Z,319.00
2018-07-05T21:36:14.593Z,319.00
2018-07-05T21:37:19.313Z,319.00
2018-07-05T21:38:16.099Z,319.00
2018-07-05T21:39:16.984Z,320.00
2018-07-05T21:40:17.839Z,319.00
2018-07-05T21:41:18.687Z,319.00
2018-07-05T21:42:19.473Z,319.00
2018-07-05T21:43:20.289Z,319.00
2018-07-05T21:44:21.178Z,319.00
2018-07-05T21:45:21.999Z,320.00
2018-07-05T21:46:22.820Z,319.00
2018-07-05T21:47:30.870Z,320.00
2018-07-05T21:48:24.422Z,319.00
2018-07-05T21:49:26.249Z,319.00
2018-07-05T21:50:26.060Z,319.00
2018-07-05T21:51:26.804Z,320.00
2018-07-05T21:52:28.605Z,319.00
2018-07-05T21:53:31.819Z,319.00
2018-07-05T21:54:29.358Z,319.00
2018-07-05T21:55:33.128Z,319.00
2018-07-05T21:56:30.937Z,319.00
2018-07-05T21:57:31.715Z,319.00
2018-07-05T21:58:32.579Z,319.00
2018-07-05T21:59:35.548Z,319.00
2018-07-05T22:00:34.236Z,319.00
2018-07-05T22:01:39.402Z,319.00
2018-07-05T22:02:35.937Z,319.00
2018-07-05T22:03:36.712Z,319.00
2018-07-05T22:04:37.475Z,319.00
2018-07-05T22:05:39.374Z,320.00
2018-07-05T22:06:41.774Z,319.00
2018-07-05T22:07:51.310Z,319.00
2018-07-05T22:08:40.859Z,319.00
2018-07-05T22:10:45.310Z,319.00
2018-07-05T22:11:43.269Z,319.00
2018-07-05T22:12:44.096Z,320.00
2018-07-05T22:13:47.036Z,319.00
2018-07-05T22:14:45.829Z,319.00
2018-07-05T22:15:46.609Z,319.00
2018-07-05T22:16:48.410Z,320.00
2018-07-05T22:17:50.474Z,319.00
2018-07-05T22:18:48.932Z,319.00
2018-07-05T22:19:52.971Z,319.00
2018-07-05T22:20:55.026Z,319.00
2018-07-05T22:21:51.519Z,319.00
2018-07-05T22:22:52.378Z,319.00
2018-07-05T22:23:53.163Z,319.00
2018-07-05T22:24:08.392Z,319.00
2018-07-05T22:24:54.081Z,319.00
2018-07-05T22:26:02.179Z,319.00
2018-07-05T22:26:55.744Z,319.00
2018-07-05T22:27:56.525Z,319.00
2018-07-05T22:28:57.278Z,319.00
2018-07-05T22:29:59.060Z,319.00
2018-07-05T22:30:58.853Z,319.00
2018-07-05T22:32:00.758Z,319.00
2018-07-05T22:33:00.527Z,319.00
2018-07-05T22:34:01.372Z,319.00
2018-07-05T22:35:02.258Z,320.00
2018-07-05T22:36:03.108Z,319.00
2018-07-05T22:37:03.892Z,319.00
2018-07-05T22:38:04.643Z,319.00
2018-07-05T22:39:08.616Z,319.00
2018-07-05T22:40:06.386Z,319.00
2018-07-05T22:41:07.197Z,319.00
2018-07-05T22:42:07.920Z,319.00
2018-07-05T22:43:16.895Z,319.00
2018-07-05T22:44:26.956Z,319.00
2018-07-05T22:45:10.307Z,319.00
2018-07-05T22:46:12.076Z,320.00
2018-07-05T22:47:12.864Z,319.00
2018-07-05T22:48:13.627Z,319.00
2018-07-05T22:49:14.398Z,319.00
2018-07-05T22:50:15.198Z,319.00
2018-07-05T22:51:15.971Z,320.00
2018-07-05T22:52:16.746Z,320.00
2018-07-05T22:53:17.516Z,320.00
2018-07-05T22:54:18.303Z,319.00
2018-07-05T22:55:19.096Z,319.00
2018-07-05T22:56:19.868Z,319.00
2018-07-05T22:57:20.637Z,319.00
2018-07-05T22:58:21.419Z,319.00
2018-07-05T22:59:22.189Z,319.00
2018-07-05T23:00:22.977Z,319.00
2018-07-05T23:01:23.749Z,319.00
2018-07-05T23:02:24.548Z,319.00
2018-07-05T23:03:25.295Z,319.00
2018-07-05T23:04:29.227Z,319.00
2018-07-05T23:05:27.024Z,319.00
2018-07-05T23:06:27.805Z,319.00
2018-07-05T23:07:28.573Z,319.00
2018-07-05T23:08:29.350Z,319.00
2018-07-05T23:09:30.123Z,320.00
2018-07-05T23:10:30.928Z,319.00
2018-07-05T23:11:31.700Z,319.00
2018-07-05T23:12:32.476Z,319.00
2018-07-05T23:13:33.246Z,319.00
2018-07-05T23:14:34.025Z,319.00
2018-07-05T23:15:34.820Z,319.00
2018-07-05T23:16:35.592Z,319.00
2018-07-05T23:17:36.361Z,319.00
2018-07-05T23:18:37.147Z,319.00
2018-07-05T23:19:37.925Z,319.00
2018-07-05T23:20:38.724Z,319.00
2018-07-05T23:21:39.494Z,319.00
2018-07-05T23:22:40.284Z,319.00
2018-07-05T23:23:41.038Z,320.00
2018-07-05T23:24:41.806Z,319.00
2018-07-05T23:25:42.603Z,319.00
2018-07-05T23:26:43.384Z,319.00
2018-07-05T23:27:44.156Z,320.00
2018-07-05T23:28:44.924Z,319.00
2018-07-05T23:29:45.703Z,319.00
2018-07-05T23:30:46.503Z,319.00
2018-07-05T23:31:47.280Z,319.00
2018-07-05T23:32:48.049Z,319.00
2018-07-05T23:33:48.822Z,319.00
2018-07-05T23:34:49.600Z,319.00
2018-07-05T23:35:50.395Z,319.00
2018-07-05T23:36:51.177Z,319.00
2018-07-05T23:37:51.947Z,319.00
2018-07-05T23:38:52.745Z,319.00
2018-07-05T23:39:53.525Z,319.00
2018-07-05T23:40:54.300Z,320.00
2018-07-05T23:41:55.078Z,319.00
2018-07-05T23:42:55.854Z,319.00
2018-07-05T23:43:56.630Z,319.00
2018-07-05T23:44:57.426Z,319.00
2018-07-05T23:45:57.302Z,320.00
2018-07-05T23:46:36.462Z,319.00
2018-07-05T23:47:37.324Z,319.00
2018-07-05T23:48:37.028Z,319.00
2018-07-05T23:49:38.796Z,319.00
2018-07-05T23:50:39.574Z,319.00
2018-07-05T23:51:40.375Z,319.00
2018-07-05T23:52:41.153Z,320.00
2018-07-05T23:53:41.920Z,319.00
2018-07-05T23:54:42.728Z,319.00
2018-07-05T23:55:43.481Z,319.00
2018-07-05T23:56:44.296Z,319.00
2018-07-05T23:57:45.063Z,319.00
2018-07-05T23:58:45.859Z,319.00
2018-07-05T23:59:46.615Z,319.00
